Архив погоды в Анучино

Метеограмма Анучино
Понедельник, 23 Октября
Время местн. Темп Ветер Видим Явления Облачность нижн/средн/верх Атм. давл. Влжн Точка росы ВНГО R Сост. почвы Tg s
Напр Скр Прв ур.ст ур.м изм
22:00 -3.7° Ю,Ю-З 1 - более 50 км - ясно 750 768 +1.2 71% -8.2° более 2.5 км - - - -
19:00 +1.2° штиль 0 - 50 км - ясно 749 766 +1.5 46% -9.1° более 2.5 км 0 - - -
16:00 +5.5° С-З 3 - более 50 км - ясно 747 764 -0.5 33% -9.4° более 2.5 км - - - -
13:00 +3.8° С 3 - 50 км - ясно 748 765 -1.1 33% -11.1° более 2.5 км - - - -
10:00 -2.4° Ю-З 1 - 50 км - ясно 749 766 +0.1 64% -8.2° более 2.5 км - - - -
07:00 -7.4° штиль 0 - 50 км - незначительная облачность 749 767 -0.7 82% -9.9° - 0 Замерзшая - -
04:00 -4.8° штиль 0 - 50 км - ясно 749 767 -1 75% -8.5° более 2.5 км - - - -
01:00 -3.8° штиль 0 - более 50 км - ясно 750 768 -1.1 70% -8.5° более 2.5 км - - - -
Воскресенье, 22 Октября
Время местн. Темп Ветер Видим Явления Облачность нижн/средн/верх Атм. давл. Влжн Точка росы ВНГО R Сост. почвы Tg s
Напр Скр Прв ур.ст ур.м изм
22:00 -2.8° штиль 0 - 50 км - ясно 751 769 -0.2 64% -8.7° более 2.5 км - - - -
19:00 +1.3° штиль 0 - более 50 км - переменная облачность 752 769 +0.5 36% -12.1° более 2.5 км 0 - - -
16:00 +5.7° С,С-В 3 - 50 км - ясно 751 768 -1.4 27% -11.8° более 2.5 км - - - -
13:00 +4.7° С 5 - более 50 км - ясно 753 770 -1.9 26% -12.9° более 2.5 км - - - -
10:00 -0.5° В 1 - 50 км - ясно 754 772 +0.6 71% -5.1° более 2.5 км - - - -
07:00 -5.9° штиль 0 - более 50 км - ясно 754 772 +0.9 93% -6.9° более 2.5 км 0 Замерзшая -4° -
04:00 -4° Ю-З 1 - 50 км - ясно 753 771 +0.5 89% -5.6° более 2.5 км - - - -
01:00 -1.8° штиль 0 - более 50 км - ясно 753 770 +0.5 86% -3.8° более 2.5 км - - - -
Суббота, 21 Октября
Время местн. Темп Ветер Видим Явления Облачность нижн/средн/верх Атм. давл. Влжн Точка росы ВНГО R Сост. почвы Tg s
Напр Скр Прв ур.ст ур.м изм
22:00 +0.9° штиль 0 - 50 км - облачно с прояснениями 752 770 +1.5 92% -0.2° 1 км - - - -
19:00 +6.9° С-В 1 - более 50 км - переменная облачность 750 768 +1.7 75% +2.7° 1 км 3 - - -
16:00 +9° С 2 10 более 50 км гроза {ливневые осадки} облачно 749 766 +1.8 79% +5.5° 1 км - - - -
13:00 +16.7° Ю-З 4 11 более 50 км - облачно с прояснениями 747 764 -0.7 59% +8.7° 1 км - - - -
10:00 +14° Ю-З 2 - 50 км небо без изменений {ливневые осадки} переменная облачность 748 764 +0.3 71% +8.8° 1 км - - - -
07:00 +10.2° Ю-З 2 - 50 км небо без изменений {ливневые осадки} облачно с прояснениями 747 764 +0.3 79% +6.8° 1 км 0 Влажная (без луж) - -
04:00 +9.3° Ю-З 2 - 10 км слабый ливневый дождь облачно 747 764 -0.4 80% +6° 1 км - - - -
01:00 +4.8° З 1 - 50 км - ясно 747 765 -0.7 91% +3.5° более 2.5 км - - - -
Пятница, 20 Октября
Время местн. Темп Ветер Видим Явления Облачность нижн/средн/верх Атм. давл. Влжн Точка росы ВНГО R Сост. почвы Tg s
Напр Скр Прв ур.ст ур.м изм
22:00 +5.9° З 2 - более 50 км - ясно 748 765 +0.1 89% +4.3° более 2.5 км - - - -
19:00 +10.6° З 1 - более 50 км - переменная облачность 748 765 +0.1 71% +5.6° 1 км 2 - - -